createdAt,value
2022-11-22T00:00:25.897Z,94464.66
2022-11-22T00:02:52.791Z,94478.28
2022-11-22T00:05:20.020Z,94472.63
2022-11-22T00:07:47.128Z,94458.47
2022-11-22T00:10:14.736Z,94477.41
2022-11-22T00:12:42.176Z,94487.63
2022-11-22T00:15:09.809Z,94489.47
2022-11-22T00:17:36.794Z,94493.25
2022-11-22T00:20:04.921Z,94492.19
2022-11-22T00:22:32.793Z,94501.03
2022-11-22T00:24:59.751Z,94492.19
2022-11-22T00:27:29.196Z,94488.38
2022-11-22T00:29:55.994Z,94455.44
2022-11-22T00:32:23.057Z,94465.88
2022-11-22T00:34:49.710Z,94457.09
2022-11-22T00:37:16.429Z,94451.69
2022-11-22T00:39:43.034Z,94473.72
2022-11-22T00:42:09.709Z,94484.09
2022-11-22T00:44:36.768Z,94483.25
2022-11-22T00:47:03.766Z,94487.88
2022-11-22T00:49:30.809Z,94478.47
2022-11-22T00:51:57.770Z,94458.38
2022-11-22T00:54:24.576Z,94487.41
2022-11-22T00:56:51.236Z,94471.94
2022-11-22T00:59:17.832Z,94474.75
2022-11-22T01:01:44.719Z,94473.13
2022-11-22T01:04:11.423Z,94475.59
2022-11-22T01:06:38.224Z,94466.63
2022-11-22T01:09:05.066Z,94450.75
2022-11-22T01:11:31.888Z,94476.03
2022-11-22T01:13:58.577Z,94467.72
2022-11-22T01:16:25.631Z,94475.06
2022-11-22T01:18:52.313Z,94473.84
2022-11-22T01:21:18.968Z,94482.97
2022-11-22T01:23:45.647Z,94458.00
2022-11-22T01:26:12.859Z,94468.13
2022-11-22T01:28:39.618Z,94444.16
2022-11-22T01:31:06.673Z,94473.41
2022-11-22T01:33:33.444Z,94479.22
2022-11-22T01:36:00.180Z,94467.25
2022-11-22T01:38:26.978Z,94464.47
2022-11-22T01:40:54.757Z,94434.75
2022-11-22T01:43:27.089Z,94470.13
2022-11-22T01:45:55.051Z,94472.63
2022-11-22T01:48:24.477Z,94459.19
2022-11-22T01:50:59.506Z,94459.94
2022-11-22T01:53:31.945Z,94453.09
2022-11-22T01:56:01.165Z,94456.84
2022-11-22T01:58:30.799Z,94451.66
2022-11-22T02:00:58.280Z,94443.66
2022-11-22T02:03:27.432Z,94439.25
2022-11-22T02:05:55.269Z,94461.38
2022-11-22T02:09:02.904Z,94457.91
2022-11-22T02:11:34.060Z,94399.84
2022-11-22T02:14:02.228Z,94462.22
2022-11-22T02:16:28.969Z,94456.41
2022-11-22T02:18:55.618Z,94466.75
2022-11-22T02:21:22.297Z,94447.25
2022-11-22T02:23:54.965Z,94459.34
2022-11-22T02:26:24.176Z,94455.06
2022-11-22T02:28:52.547Z,94456.22
2022-11-22T02:31:47.129Z,94461.75
2022-11-22T02:34:14.537Z,94438.50
2022-11-22T02:36:50.214Z,94451.94
2022-11-22T02:39:20.592Z,94450.59
2022-11-22T02:41:51.556Z,94444.47
2022-11-22T02:44:20.667Z,94455.13
2022-11-22T02:46:50.121Z,94449.16
2022-11-22T02:49:19.209Z,94445.22
2022-11-22T02:51:46.678Z,94445.66
2022-11-22T02:54:14.130Z,94446.09
2022-11-22T02:56:41.138Z,94445.41
2022-11-22T02:59:07.962Z,94447.00
2022-11-22T03:01:35.098Z,94442.38
2022-11-22T03:04:01.898Z,94410.25
2022-11-22T03:06:28.545Z,94430.16
2022-11-22T03:08:56.778Z,94448.94
2022-11-22T03:11:24.912Z,94386.25
2022-11-22T03:13:51.953Z,94414.88
2022-11-22T03:16:18.714Z,94379.41
2022-11-22T03:18:45.642Z,94435.06
2022-11-22T03:21:12.661Z,94424.41
2022-11-22T03:23:39.505Z,94406.66
2022-11-22T03:26:11.181Z,94369.66
2022-11-22T03:28:38.352Z,94388.94
2022-11-22T03:31:06.557Z,94417.66
2022-11-22T03:33:34.851Z,94426.84
2022-11-22T03:36:01.650Z,94393.81
2022-11-22T03:38:28.830Z,94424.56
2022-11-22T03:40:55.466Z,94397.72
2022-11-22T03:43:22.479Z,94438.41
2022-11-22T03:45:49.352Z,94426.41
2022-11-22T03:48:15.960Z,94432.44
2022-11-22T03:50:42.639Z,94419.06
2022-11-22T03:53:10.104Z,94440.25
2022-11-22T03:55:36.851Z,94426.22
2022-11-22T03:58:04.106Z,94439.56
2022-11-22T04:00:31.831Z,94441.03
2022-11-22T04:02:58.658Z,94433.13
2022-11-22T04:05:25.700Z,94442.84
2022-11-22T04:07:58.293Z,94445.72
2022-11-22T04:10:26.320Z,94446.06
2022-11-22T04:12:58.436Z,94427.41
2022-11-22T04:15:26.431Z,94456.00
2022-11-22T04:17:53.312Z,94452.81
2022-11-22T04:20:43.619Z,94437.31
2022-11-22T04:23:14.491Z,94446.47
2022-11-22T04:25:44.419Z,94448.50
2022-11-22T04:28:12.174Z,94456.19
2022-11-22T04:30:57.926Z,94455.63
2022-11-22T04:33:25.026Z,94435.31
2022-11-22T04:35:52.818Z,94471.63
2022-11-22T04:38:19.949Z,94475.50
2022-11-22T04:40:47.289Z,94479.69
2022-11-22T04:43:50.813Z,94484.09
2022-11-22T04:46:17.641Z,94480.16
2022-11-22T04:48:44.240Z,94493.88
2022-11-22T04:51:33.292Z,94489.88
2022-11-22T04:54:00.359Z,94488.56
2022-11-22T04:56:27.428Z,94503.59
2022-11-22T04:58:54.833Z,94504.09
2022-11-22T05:01:21.881Z,94514.53
2022-11-22T05:03:48.990Z,94511.22
2022-11-22T05:06:16.666Z,94529.22
2022-11-22T05:08:43.593Z,94531.72
2022-11-22T05:11:10.537Z,94534.44
2022-11-22T05:13:40.434Z,94533.97
2022-11-22T05:16:09.707Z,94526.13
2022-11-22T05:18:36.651Z,94532.09
2022-11-22T05:21:11.004Z,94515.94
2022-11-22T05:23:55.882Z,94516.03
2022-11-22T05:26:29.965Z,94524.38
2022-11-22T05:29:00.376Z,94514.63
2022-11-22T05:31:27.616Z,94515.91
2022-11-22T05:33:56.469Z,94523.28
2022-11-22T05:36:24.303Z,94517.63
2022-11-22T05:38:51.445Z,94503.72
2022-11-22T05:41:18.606Z,94522.00
2022-11-22T05:43:45.546Z,94479.84
2022-11-22T05:46:24.675Z,94515.69
2022-11-22T05:48:52.909Z,94516.75
2022-11-22T05:51:22.590Z,94519.53
2022-11-22T05:53:49.322Z,94502.34
2022-11-22T05:56:19.503Z,94516.78
2022-11-22T05:58:46.615Z,94509.59
2022-11-22T06:01:18.949Z,94484.09
2022-11-22T06:03:45.822Z,94527.72
2022-11-22T06:06:13.199Z,94521.50
2022-11-22T06:08:41.726Z,94518.16
2022-11-22T06:11:14.751Z,94517.69
2022-11-22T06:13:44.117Z,94518.16
2022-11-22T06:16:11.697Z,94510.81
2022-11-22T06:18:38.898Z,94515.19
2022-11-22T06:21:11.606Z,94527.00
2022-11-22T06:23:38.472Z,94534.94
2022-11-22T06:26:07.784Z,94524.56
2022-11-22T06:28:36.482Z,94531.34
2022-11-22T06:31:13.077Z,94529.38
2022-11-22T06:33:40.886Z,94512.28
2022-11-22T06:36:13.463Z,94503.09
2022-11-22T06:38:42.022Z,94522.38
2022-11-22T06:41:10.923Z,94518.78
2022-11-22T06:43:43.792Z,94528.22
2022-11-22T06:46:16.485Z,94511.38
2022-11-22T06:48:44.039Z,94536.53
2022-11-22T06:51:36.921Z,94542.66
2022-11-22T06:54:03.679Z,94526.34
2022-11-22T06:56:32.749Z,94514.84
2022-11-22T06:59:04.049Z,94535.59
2022-11-22T07:01:32.309Z,94498.03
2022-11-22T07:04:00.126Z,94535.50
2022-11-22T07:06:30.242Z,94522.03
2022-11-22T07:08:57.295Z,94538.34
2022-11-22T07:11:27.093Z,94516.66
2022-11-22T07:13:55.661Z,94535.09
2022-11-22T07:16:23.235Z,94519.78
2022-11-22T07:18:51.690Z,94523.97
2022-11-22T07:21:21.657Z,94531.69
2022-11-22T07:23:50.730Z,94540.22
2022-11-22T07:26:19.278Z,94540.09
2022-11-22T07:28:46.333Z,94549.19
2022-11-22T07:31:14.701Z,94530.47
2022-11-22T07:33:42.660Z,94513.94
2022-11-22T07:36:12.174Z,94503.16
2022-11-22T07:38:39.315Z,94497.19
2022-11-22T07:41:07.599Z,94487.41
2022-11-22T07:43:35.213Z,94495.78
2022-11-22T07:46:03.858Z,94486.50
2022-11-22T07:48:30.892Z,94485.44
2022-11-22T07:51:02.980Z,94512.31
2022-11-22T07:53:30.110Z,94512.09
2022-11-22T07:55:57.995Z,94515.03
2022-11-22T07:58:24.867Z,94525.50
2022-11-22T08:00:51.737Z,94510.69
2022-11-22T08:03:21.567Z,94522.06
2022-11-22T08:05:50.675Z,94506.31
2022-11-22T08:08:17.382Z,94498.34
2022-11-22T08:10:44.892Z,94483.16
2022-11-22T08:13:11.920Z,94492.34
2022-11-22T08:15:38.733Z,94490.41
2022-11-22T08:18:05.617Z,94441.59
2022-11-22T08:20:32.609Z,94494.22
2022-11-22T08:22:59.343Z,94502.03
2022-11-22T08:25:25.963Z,94486.41
2022-11-22T08:27:52.574Z,94496.03
2022-11-22T08:30:19.244Z,94489.53
2022-11-22T08:32:45.960Z,94482.44
2022-11-22T08:35:12.702Z,94483.38
2022-11-22T08:37:39.425Z,94436.22
2022-11-22T08:40:06.922Z,94455.59
2022-11-22T08:42:33.604Z,94473.66
2022-11-22T08:45:00.338Z,94433.53
2022-11-22T08:47:26.987Z,94439.81
2022-11-22T08:49:53.850Z,94428.91
2022-11-22T08:52:20.714Z,94449.59
2022-11-22T08:54:47.373Z,94464.44
2022-11-22T08:57:14.386Z,94455.56
2022-11-22T08:59:41.243Z,94429.38
2022-11-22T09:02:09.533Z,94453.91
2022-11-22T09:04:36.181Z,94457.94
2022-11-22T09:09:49.776Z,94455.22
2022-11-22T09:12:16.653Z,94427.09
2022-11-22T09:14:43.231Z,94389.66
2022-11-22T09:17:14.592Z,94442.28
2022-11-22T09:19:44.224Z,94436.78
2022-11-22T09:22:10.939Z,94432.28
2022-11-22T09:24:37.554Z,94446.59
2022-11-22T09:27:04.417Z,94429.72
2022-11-22T09:29:31.381Z,94435.97
2022-11-22T09:31:58.479Z,94422.50
2022-11-22T09:34:25.223Z,94417.53
2022-11-22T09:36:51.812Z,94422.66
2022-11-22T09:39:18.814Z,94418.44
2022-11-22T09:41:54.636Z,94421.44
2022-11-22T09:44:36.401Z,94425.47
2022-11-22T09:47:21.697Z,94423.19
2022-11-22T09:50:12.791Z,94410.16
2022-11-22T09:52:55.665Z,94410.88
2022-11-22T09:55:45.664Z,94408.34
2022-11-22T09:58:38.197Z,94411.88
2022-11-22T10:01:23.279Z,94405.78
2022-11-22T10:04:01.310Z,94376.59
2022-11-22T10:06:34.210Z,94395.53
2022-11-22T10:09:19.640Z,94408.03
2022-11-22T10:12:17.534Z,94360.63
2022-11-22T10:15:05.495Z,94382.44
2022-11-22T10:17:55.409Z,94386.53
2022-11-22T10:20:30.483Z,94369.53
2022-11-22T10:22:58.977Z,94375.16
2022-11-22T10:25:43.839Z,94375.28
2022-11-22T10:28:19.429Z,94348.19
2022-11-22T10:30:58.569Z,94359.50
2022-11-22T10:33:34.276Z,94350.16
2022-11-22T10:36:37.335Z,94334.97
2022-11-22T10:39:30.102Z,94326.38
2022-11-22T10:42:20.460Z,94333.59
2022-11-22T10:45:07.441Z,94343.22
2022-11-22T10:47:56.615Z,94336.13
2022-11-22T10:50:30.891Z,94327.59
2022-11-22T10:52:57.680Z,94339.75
2022-11-22T10:55:42.874Z,94309.38
2022-11-22T10:58:46.157Z,94318.25
2022-11-22T11:01:45.446Z,94281.50
2022-11-22T11:04:17.072Z,94307.97
2022-11-22T11:12:32.505Z,94337.06
2022-11-22T11:15:05.414Z,94318.72
2022-11-22T11:17:37.017Z,94329.09
2022-11-22T11:20:14.131Z,94298.09
2022-11-22T11:25:33.982Z,94294.00
2022-11-22T11:28:08.921Z,94308.16
2022-11-22T11:30:42.900Z,94324.56
2022-11-22T11:33:34.956Z,94296.88
2022-11-22T11:36:06.819Z,94309.38
2022-11-22T11:38:36.576Z,94280.59
2022-11-22T11:41:20.268Z,94292.00
2022-11-22T11:43:47.723Z,94283.00
2022-11-22T11:46:28.870Z,94271.53
2022-11-22T11:49:08.550Z,94287.22
2022-11-22T11:51:41.098Z,94228.88
2022-11-22T11:54:34.193Z,94298.81
2022-11-22T11:57:05.257Z,94272.75
2022-11-22T11:59:47.586Z,94272.75
2022-11-22T12:02:29.451Z,94256.34
2022-11-22T12:05:04.792Z,94274.16
2022-11-22T12:07:34.628Z,94278.34
2022-11-22T12:10:04.121Z,94259.53
2022-11-22T12:12:36.473Z,94265.84
2022-11-22T12:15:12.441Z,94269.47
2022-11-22T12:17:52.816Z,94280.63
2022-11-22T12:20:26.379Z,94263.44
2022-11-22T12:23:06.144Z,94215.06
2022-11-22T12:25:37.929Z,94237.88
2022-11-22T12:28:22.853Z,94244.34
2022-11-22T12:31:18.857Z,94218.91
2022-11-22T12:34:13.494Z,94221.44
2022-11-22T12:37:05.867Z,94237.88
2022-11-22T12:39:36.282Z,94238.19
2022-11-22T12:42:07.809Z,94234.56
2022-11-22T12:44:39.844Z,94225.06
2022-11-22T12:47:13.065Z,94232.59
2022-11-22T12:49:59.906Z,94226.25
2022-11-22T12:52:34.905Z,94216.38
2022-11-22T12:55:17.961Z,94212.00
2022-11-22T12:58:17.121Z,94222.38
2022-11-22T13:01:03.486Z,94194.28
2022-11-22T13:03:53.446Z,94219.25
2022-11-22T13:06:28.267Z,94227.06
2022-11-22T13:09:05.825Z,94231.44
2022-11-22T13:11:39.897Z,94150.34
2022-11-22T13:14:21.385Z,94197.59
2022-11-22T13:16:51.161Z,94192.66
2022-11-22T13:19:22.851Z,94192.19
2022-11-22T13:22:08.830Z,94204.06
2022-11-22T13:24:54.336Z,94201.81
2022-11-22T13:27:28.066Z,94218.19
2022-11-22T13:29:58.284Z,94212.63
2022-11-22T13:32:31.419Z,94212.19
2022-11-22T13:35:13.103Z,94199.84
2022-11-22T13:37:49.545Z,94172.03
2022-11-22T13:40:16.081Z,94186.63
2022-11-22T13:42:43.159Z,94177.28
2022-11-22T13:45:21.728Z,94184.97
2022-11-22T13:47:48.765Z,94173.38
2022-11-22T13:50:37.233Z,94170.94
2022-11-22T13:53:19.122Z,94165.69
2022-11-22T13:55:46.932Z,94138.63
2022-11-22T13:58:25.794Z,94163.28
2022-11-22T14:00:54.562Z,94163.91
2022-11-22T14:03:42.899Z,94147.09
2022-11-22T14:06:35.981Z,94169.47
2022-11-22T14:09:28.650Z,94158.69
2022-11-22T14:12:01.467Z,94150.09
2022-11-22T14:14:37.672Z,94136.88
2022-11-22T14:17:25.641Z,94158.63
2022-11-22T14:20:11.233Z,94157.75
2022-11-22T14:23:06.251Z,94138.13
2022-11-22T14:25:44.923Z,94146.88
2022-11-22T14:28:49.992Z,94127.13
2022-11-22T14:31:29.934Z,94133.44
2022-11-22T14:34:18.495Z,94136.41
2022-11-22T14:37:06.771Z,94119.59
2022-11-22T14:39:45.849Z,94123.47
2022-11-22T14:42:41.820Z,94139.22
2022-11-22T14:45:11.318Z,94132.41
2022-11-22T14:47:52.989Z,94130.84
2022-11-22T14:50:32.799Z,94112.34
2022-11-22T14:53:45.853Z,94107.50
2022-11-22T14:56:22.897Z,94110.22
2022-11-22T14:58:58.551Z,94112.97
2022-11-22T15:01:39.049Z,94097.41
2022-11-22T15:09:19.925Z,94124.31
2022-11-22T15:09:20.684Z,94112.25
2022-11-22T15:11:17.293Z,94109.25
2022-11-22T15:14:15.864Z,94111.22
2022-11-22T15:59:45.472Z,94133.22
2022-11-22T16:02:22.833Z,94110.69
2022-11-22T16:06:03.625Z,94113.69
2022-11-22T16:07:45.834Z,94130.81
2022-11-22T16:10:37.747Z,94097.59
2022-11-22T16:13:20.813Z,94079.13
2022-11-22T16:16:12.659Z,94095.66
2022-11-22T16:18:41.146Z,94091.16
2022-11-22T16:21:11.518Z,94101.69
2022-11-22T16:23:39.769Z,94087.13
2022-11-22T16:26:18.242Z,94080.97
2022-11-22T16:28:50.985Z,94109.63
2022-11-22T16:31:26.852Z,94075.97
2022-11-22T16:33:54.775Z,94090.69
2022-11-22T16:36:23.502Z,94063.50
2022-11-22T16:38:50.495Z,94052.22
2022-11-22T16:41:22.598Z,94051.75
2022-11-22T16:43:52.987Z,94027.94
2022-11-22T16:46:20.585Z,94039.53
2022-11-22T16:48:48.151Z,94049.44
2022-11-22T16:51:28.524Z,94035.53
2022-11-22T16:53:58.922Z,94063.03
2022-11-22T16:56:28.493Z,94051.41
2022-11-22T16:58:56.994Z,94006.34
2022-11-22T17:01:26.701Z,94045.72
2022-11-22T17:03:56.228Z,94037.00
2022-11-22T17:06:25.972Z,94042.97
2022-11-22T17:08:55.472Z,94036.66
2022-11-22T17:11:31.694Z,94043.72
2022-11-22T17:13:59.377Z,93982.00
2022-11-22T17:16:26.179Z,93983.13
2022-11-22T17:18:53.509Z,94014.41
2022-11-22T17:21:31.329Z,94000.41
2022-11-22T17:24:04.019Z,93999.25
2022-11-22T17:26:32.618Z,94012.63
2022-11-22T17:28:59.396Z,93992.22
2022-11-22T17:31:28.702Z,94017.41
2022-11-22T17:33:58.021Z,93996.34
2022-11-22T17:36:30.303Z,93999.75
2022-11-22T17:38:57.590Z,93989.94
2022-11-22T17:41:24.730Z,93998.81
2022-11-22T17:43:52.182Z,94003.84
2022-11-22T17:46:20.034Z,93985.03
2022-11-22T17:48:55.165Z,93960.56
2022-11-22T17:51:22.491Z,93990.38
2022-11-22T17:53:49.614Z,93959.13
2022-11-22T17:56:16.644Z,93963.91
2022-11-22T17:58:43.741Z,93970.91
2022-11-22T18:01:13.331Z,93957.66
2022-11-22T18:03:40.912Z,93950.63
2022-11-22T18:06:08.881Z,93941.00
2022-11-22T18:08:36.081Z,93936.34
2022-11-22T18:11:04.512Z,93958.56
2022-11-22T18:13:34.157Z,93892.44
2022-11-22T18:16:03.779Z,93949.09
2022-11-22T18:21:19.410Z,93899.41
2022-11-22T18:23:46.086Z,93905.25
2022-11-22T18:29:35.657Z,93930.22
2022-11-22T18:31:52.051Z,93918.75
2022-11-22T18:34:19.684Z,93924.59
2022-11-22T18:37:03.887Z,93895.75
2022-11-22T18:39:36.522Z,93903.59
2022-11-22T18:42:05.292Z,93899.84
2022-11-22T18:44:32.530Z,93940.69
2022-11-22T18:46:59.332Z,93910.63
2022-11-22T18:49:26.347Z,93879.91
2022-11-22T18:51:53.519Z,93904.50
2022-11-22T18:54:21.915Z,93865.84
2022-11-22T18:56:49.456Z,93910.59
2022-11-22T18:59:16.465Z,93873.06
2022-11-22T19:01:43.455Z,93910.50
2022-11-22T19:04:16.497Z,93911.25
2022-11-22T19:06:44.127Z,93893.66
2022-11-22T19:09:11.619Z,93943.97
2022-11-22T19:11:38.544Z,93902.06
2022-11-22T19:14:06.078Z,93881.81
2022-11-22T19:16:33.656Z,93951.69
2022-11-22T19:19:00.576Z,93965.41
2022-11-22T19:21:31.944Z,93904.97
2022-11-22T19:23:59.137Z,93905.19
2022-11-22T19:26:28.432Z,93921.34
2022-11-22T19:28:56.467Z,93880.31
2022-11-22T19:31:29.495Z,93902.06
2022-11-22T19:33:56.613Z,93927.72
2022-11-22T19:36:32.324Z,93928.41
2022-11-22T19:39:01.464Z,93955.97
2022-11-22T19:41:28.685Z,93911.06
2022-11-22T19:43:56.745Z,93942.31
2022-11-22T19:46:38.894Z,93940.91
2022-11-22T19:49:08.699Z,93900.56
2022-11-22T19:51:36.569Z,93856.25
2022-11-22T19:54:04.031Z,93849.06
2022-11-22T19:56:36.643Z,93798.47
2022-11-22T19:59:06.415Z,93840.25
2022-11-22T20:01:35.799Z,93835.41
2022-11-22T20:04:05.978Z,93910.25
2022-11-22T20:06:34.574Z,93897.53
2022-11-22T20:09:06.650Z,93880.97
2022-11-22T20:11:33.611Z,93908.19
2022-11-22T20:14:00.884Z,93841.13
2022-11-22T20:16:30.578Z,93800.78
2022-11-22T20:19:03.670Z,93814.09
2022-11-22T20:21:32.327Z,93842.69
2022-11-22T20:24:00.529Z,93903.06
2022-11-22T20:26:28.093Z,93896.47
2022-11-22T20:29:04.204Z,93863.00
2022-11-22T20:31:33.152Z,93882.88
2022-11-22T20:34:01.224Z,93874.59
2022-11-22T20:36:30.178Z,93875.31
2022-11-22T20:38:57.496Z,93817.75
2022-11-22T20:41:29.954Z,93862.19
2022-11-22T20:43:56.973Z,93847.69
2022-11-22T20:46:27.291Z,93793.38
2022-11-22T20:48:55.366Z,93801.16
2022-11-22T20:51:31.070Z,93866.03
2022-11-22T20:53:58.356Z,93861.44
2022-11-22T20:56:25.580Z,93796.56
2022-11-22T20:58:52.716Z,93854.84
2022-11-22T21:01:28.605Z,93808.00
2022-11-22T21:03:55.683Z,93750.69
2022-11-22T21:06:23.876Z,93820.53
2022-11-22T21:08:51.520Z,93846.72
2022-11-22T21:11:23.637Z,93763.13
2022-11-22T21:13:51.265Z,93841.28
2022-11-22T21:16:24.399Z,93766.09
2022-11-22T21:19:05.281Z,93817.06
2022-11-22T21:21:35.127Z,93762.31
2022-11-22T21:24:04.020Z,93837.19
2022-11-22T21:26:31.437Z,93744.38
2022-11-22T21:28:59.855Z,93776.75
2022-11-22T21:31:27.559Z,93868.75
2022-11-22T21:33:54.616Z,93845.19
2022-11-22T21:36:22.817Z,93873.44
2022-11-22T21:38:49.535Z,93823.47
2022-11-22T21:44:06.584Z,93881.94
2022-11-22T21:46:33.195Z,93881.00
2022-11-22T21:48:59.932Z,93863.25
2022-11-22T21:51:26.880Z,93849.81
2022-11-22T21:54:01.363Z,93852.16
2022-11-22T21:56:28.462Z,93854.50
2022-11-22T21:58:55.153Z,93835.66
2022-11-22T22:01:22.853Z,93814.75
2022-11-22T22:03:49.898Z,93835.25
2022-11-22T22:06:16.598Z,93814.94
2022-11-22T22:08:43.409Z,93834.47
2022-11-22T22:11:10.142Z,93801.75
2022-11-22T22:13:36.757Z,93812.97
2022-11-22T22:16:06.919Z,93803.53
2022-11-22T22:18:35.749Z,93769.50
2022-11-22T22:21:07.503Z,93789.41
2022-11-22T22:23:35.781Z,93800.00
2022-11-22T22:26:06.433Z,93789.91
2022-11-22T22:28:35.232Z,93792.44
2022-11-22T22:31:17.256Z,93783.44
2022-11-22T22:33:45.578Z,93786.41
2022-11-22T22:36:12.432Z,93777.88
2022-11-22T22:38:39.820Z,93812.78
2022-11-22T22:41:07.873Z,93801.47
2022-11-22T22:43:36.663Z,93778.47
2022-11-22T22:46:22.903Z,93799.03
2022-11-22T22:48:51.270Z,93795.22
2022-11-22T22:51:20.826Z,93797.94
2022-11-22T22:53:47.874Z,93794.47
2022-11-22T22:56:18.524Z,93772.91
2022-11-22T22:58:45.378Z,93794.56
2022-11-22T23:01:17.414Z,93786.81
2022-11-22T23:03:50.508Z,93795.13
2022-11-22T23:06:18.055Z,93767.94
2022-11-22T23:08:47.428Z,93773.91
2022-11-22T23:11:15.979Z,93786.44
2022-11-22T23:13:43.160Z,93770.63
2022-11-22T23:16:13.191Z,93779.06
2022-11-22T23:18:42.379Z,93762.03
2022-11-22T23:21:13.106Z,93752.25
2022-11-22T23:23:39.708Z,93801.00
2022-11-22T23:26:11.720Z,93774.47
2022-11-22T23:28:38.598Z,93734.31
2022-11-22T23:31:11.390Z,93779.78
2022-11-22T23:33:38.454Z,93758.50
2022-11-22T23:36:07.947Z,93754.75
2022-11-22T23:38:35.699Z,93756.72
2022-11-22T23:41:02.421Z,93745.69
2022-11-22T23:43:29.947Z,93753.06
2022-11-22T23:45:58.743Z,93730.16
2022-11-22T23:48:27.020Z,93748.28
2022-11-22T23:50:53.791Z,93742.28
2022-11-22T23:53:20.725Z,93752.22
2022-11-22T23:55:47.316Z,93751.81
2022-11-22T23:58:13.936Z,93763.50
